TENO2: Tenkiller Lake

Data processed at Mon Jan 15 2018 23:31


All information presented herein is the property of the government of the United States of America and may be revised or deleted at any time without prior notice.
Dissemination of this information without the expressed written consent of the Public Affairs Office, Tulsa District U.S. Army Corps of Engineers is strictly prohibited.
These data are gathered electronically and, as presented, have not undergone any form of quality control. These data are not guaranteed to be valid or correct.
Go to home page.
Go to station list.

Upstream stations:

Downstream station:
Previous Day
Next Day
Current Day
    
SHEF ID:       TENO2     Tenkiller Lake
STATION TYPE:  Reservoir
Normal Pool:  Bottom =   594.50, Top =   632.00

               PRECIP PRECIP(A) ELEVATION   STORAGE   TW-ELEV    INFLOW   RELEASE  AIR-TEMP  WIND-DIRWIND-SPEED REL-HUMID SOLAR-RAD   VOLTAGE  BAT-LOAD
                   in        in        ft     ac-ft        ft       cfs       cfs         F       deg       mph         %      W/m2      volt      volt
              Ccp-Rev   Ccp-Rev   Ccp-Rev   Ccp-Rev   Ccp-Rev  Regi-Rev  Regi-Rev   Ccp-Rev   Ccp-Rev   Ccp-Rev   Ccp-Rev   Ccp-Rev   Ccp-Rev   Ccp-Rev
(US/Central)
01/13 00:00      0.00      0.00    626.25    597332    482.14      -901      -901     26.80    215.80      2.58     54.14      1.00     13.72     13.18
01/13 01:00      0.00      0.00    626.25    597332    482.13      -901      -901     25.59    244.80      1.38     56.22      0.00     13.72     13.18
01/13 02:00      0.00      0.00    626.24    597214    482.11      -901      -901     25.05    222.40      3.26     59.09      0.00     13.72     13.18
01/13 03:00      0.00      0.00    626.24    597214    482.10      -901      -901     24.49    219.70      3.33     59.15      0.00     13.72     13.18
01/13 04:00      0.00      0.00    626.25    597332    482.10      -901      -901     24.28    214.40      3.09     56.95      1.00     13.72     13.18
01/13 05:00      0.00      0.00    626.26    597450    482.10      -901      -901     23.18    222.00      3.07     59.46      0.00     13.72     13.18
01/13 06:00      0.00      0.00    626.26    597450    482.10      -901      -901     22.96    215.20      3.22     56.71      0.00     13.72     13.24
01/13 07:00      0.00      0.00    626.26    597450    483.54      -901      -901     22.19    204.40      3.89     56.53      0.00     13.72     13.24
01/13 08:00      0.00      0.00    626.21    596860    486.87      -901      -901     22.30    219.80      3.61     53.72      5.00     13.72     13.24
01/13 09:00      0.00      0.00    626.20    596742    487.03      -901      -901     23.29    210.00      2.76     52.68     53.00     13.72     13.12
01/13 10:00      0.00      0.00    626.17    596387    486.93      -901      -901     25.16    205.40      2.94     48.72    165.00     13.72     13.12
01/13 11:00      0.00      0.00    626.15    596151    486.54      -901      -901     27.36    190.10      3.24     42.42    378.00     13.73     13.07
01/13 12:00      0.00      0.00    626.16    596269    482.53      -901      -901     29.12    164.70      3.32     42.06    512.00     13.73     13.12
01/13 13:00      0.00      0.00    626.14    596033    482.19      -901      -901     28.99    140.20      4.55     35.22    412.00     13.73     13.12
01/13 14:00      0.00      0.00    626.17    596387    482.13      -901      -901     30.76    130.40      6.48     34.92    441.00     13.73     13.12
01/13 15:00      0.00      0.00    626.16    596269    482.11      -901      -901     31.96    133.00      5.13     28.45    428.00     13.73     13.12
01/13 16:00      0.00      0.00    626.16    596269    482.10      -901      -901     33.62    143.00      3.17     27.77    298.00     13.73     13.12
01/13 17:00      0.00      0.00    626.14    596033    483.48      -901      -901     33.62    157.50      1.75     29.30    105.00     13.72     13.12
01/13 18:00      0.00      0.00    626.11    595679    486.88      -901      -901     30.65    184.70      0.51     48.04      7.00     13.72     13.24
01/13 19:00      0.00      0.00    626.10    595561    486.98      -901      -901     27.68    195.10      0.22     52.19      0.00     13.72     13.24
01/13 20:00      0.00      0.00    626.08    595325    486.59      -901      -901     27.03    171.40      0.32     55.06      1.00     13.72     13.24
01/13 21:00      0.00      0.00    626.08    595325    482.55      -901      -901     27.25    148.50      0.34     55.24      1.00     13.72     13.18
01/13 22:00      0.00      0.00    626.09    595443    482.19      -901      -901     27.68    162.30      0.33     57.26      0.00     13.71     13.12
01/13 23:00      0.00      0.00    626.09    595443    482.13      -901      -901     27.68    172.00      0.32     52.92      0.00     13.72     13.12